createdAt,value
2018-03-31T00:03:02.418Z,74.94
2018-03-31T00:06:05.029Z,74.86
2018-03-31T00:09:08.286Z,74.73
2018-03-31T00:12:10.796Z,74.18
2018-03-31T00:15:14.364Z,74.04
2018-03-31T00:18:16.878Z,74.27
2018-03-31T00:21:20.141Z,73.95
2018-03-31T00:24:22.630Z,74.05
2018-03-31T00:27:25.110Z,73.98
2018-03-31T00:30:27.590Z,73.90
2018-03-31T00:33:30.061Z,73.86
2018-03-31T00:36:32.545Z,74.11
2018-03-31T00:39:35.030Z,73.75
2018-03-31T00:42:37.514Z,73.64
2018-03-31T00:45:40.025Z,73.90
2018-03-31T00:48:42.550Z,73.72
2018-03-31T00:51:45.950Z,73.67
2018-03-31T00:54:48.464Z,73.60
2018-03-31T00:58:00.261Z,73.72
2018-03-31T01:01:02.777Z,73.79
2018-03-31T01:04:05.267Z,73.65
2018-03-31T01:07:07.761Z,73.18
2018-03-31T01:10:10.470Z,73.60
2018-03-31T01:13:12.980Z,73.53
2018-03-31T01:16:15.484Z,73.02
2018-03-31T01:19:18.116Z,73.01
2018-03-31T01:22:20.592Z,73.03
2018-03-31T01:25:23.981Z,73.02
2018-03-31T01:28:26.456Z,72.76
2018-03-31T01:31:28.958Z,72.50
2018-03-31T01:34:32.250Z,72.69
2018-03-31T01:37:34.779Z,72.54
2018-03-31T01:40:37.265Z,72.90
2018-03-31T01:43:39.745Z,73.27
2018-03-31T01:46:42.225Z,72.54
2018-03-31T01:49:44.703Z,72.59
2018-03-31T01:52:47.182Z,72.58
2018-03-31T01:55:49.664Z,72.41
2018-03-31T01:58:52.124Z,72.25
2018-03-31T02:01:54.617Z,72.39
2018-03-31T02:04:57.093Z,72.93
2018-03-31T02:08:00.130Z,72.87
2018-03-31T02:11:03.430Z,72.91
2018-03-31T02:14:06.677Z,72.52
2018-03-31T02:17:09.192Z,72.13
2018-03-31T02:20:11.660Z,72.41
2018-03-31T02:23:14.136Z,72.25
2018-03-31T02:26:16.645Z,72.01
2018-03-31T02:29:19.892Z,72.37
2018-03-31T02:32:22.396Z,72.21
2018-03-31T02:35:24.890Z,72.30
2018-03-31T02:38:28.138Z,72.04
2018-03-31T02:41:30.621Z,72.24
2018-03-31T02:44:33.096Z,72.49
2018-03-31T02:47:35.565Z,72.18
2018-03-31T02:50:38.046Z,72.26
2018-03-31T02:53:40.541Z,72.08
2018-03-31T02:56:43.017Z,72.05
2018-03-31T02:59:45.533Z,72.24
2018-03-31T03:02:48.006Z,72.02
2018-03-31T03:05:50.490Z,72.18
2018-03-31T03:08:53.746Z,72.58
2018-03-31T03:11:56.286Z,72.35
2018-03-31T03:14:59.544Z,72.49
2018-03-31T03:18:02.032Z,72.54
2018-03-31T03:21:04.508Z,73.03
2018-03-31T03:24:06.985Z,72.83
2018-03-31T03:27:09.482Z,72.92
2018-03-31T03:30:13.620Z,73.24
2018-03-31T03:33:16.104Z,73.38
2018-03-31T03:36:18.581Z,73.39
2018-03-31T03:39:21.045Z,73.36
2018-03-31T03:42:24.316Z,73.53
2018-03-31T03:45:26.776Z,73.21
2018-03-31T03:48:29.257Z,73.35
2018-03-31T03:51:31.733Z,73.28
2018-03-31T03:54:34.208Z,73.44
2018-03-31T03:57:36.682Z,73.93
2018-03-31T04:00:39.148Z,74.10
2018-03-31T04:03:41.651Z,73.88
2018-03-31T04:06:44.152Z,74.54
2018-03-31T04:09:47.386Z,75.21
2018-03-31T04:12:49.888Z,75.49
2018-03-31T04:15:52.377Z,75.51
2018-03-31T04:18:54.913Z,75.99
2018-03-31T04:21:57.381Z,76.08
2018-03-31T04:25:00.617Z,77.15
2018-03-31T04:28:03.141Z,77.56
2018-03-31T04:31:05.636Z,78.22
2018-03-31T04:34:08.880Z,78.13
2018-03-31T04:37:11.354Z,78.30
2018-03-31T04:40:13.834Z,78.68
2018-03-31T04:43:16.353Z,78.89
2018-03-31T04:46:18.808Z,79.57
2018-03-31T04:49:21.313Z,79.93
2018-03-31T04:52:24.557Z,80.21
2018-03-31T04:55:27.033Z,80.01
2018-03-31T04:58:29.517Z,80.65
2018-03-31T05:01:31.999Z,80.56
2018-03-31T05:04:35.238Z,80.80
2018-03-31T05:07:38.484Z,80.76
2018-03-31T05:10:40.957Z,80.52
2018-03-31T05:13:43.448Z,80.85
2018-03-31T05:16:45.931Z,80.80
2018-03-31T05:19:48.412Z,80.88
2018-03-31T05:22:51.664Z,81.08
2018-03-31T05:25:54.144Z,81.00
2018-03-31T05:28:56.612Z,80.84
2018-03-31T05:31:59.851Z,80.36
2018-03-31T05:35:02.632Z,81.03
2018-03-31T05:38:05.118Z,81.54
2018-03-31T05:41:07.593Z,81.60
2018-03-31T05:44:10.078Z,82.17
2018-03-31T05:47:12.634Z,81.81
2018-03-31T05:50:15.108Z,81.97
2018-03-31T05:53:17.689Z,82.34
2018-03-31T05:56:20.252Z,82.36
2018-03-31T05:59:23.492Z,82.21
2018-03-31T06:02:25.974Z,81.97
2018-03-31T06:05:28.449Z,81.22
2018-03-31T06:08:30.918Z,81.42
2018-03-31T06:11:33.415Z,81.39
2018-03-31T06:14:35.889Z,81.23
2018-03-31T06:17:38.373Z,80.84
2018-03-31T06:20:40.865Z,80.22
2018-03-31T06:23:43.343Z,80.79
2018-03-31T06:26:46.028Z,80.14
2018-03-31T06:29:48.509Z,80.42
2018-03-31T06:32:50.989Z,81.13
2018-03-31T06:35:53.461Z,81.41
2018-03-31T06:38:55.940Z,81.00
2018-03-31T06:41:58.460Z,80.89
2018-03-31T06:45:01.704Z,80.74
2018-03-31T06:48:04.192Z,80.59
2018-03-31T06:51:06.686Z,80.91
2018-03-31T06:54:09.155Z,80.44
2018-03-31T06:57:11.649Z,81.12
2018-03-31T07:00:14.152Z,81.24
2018-03-31T07:03:18.161Z,81.23
2018-03-31T07:06:20.645Z,80.96
2018-03-31T07:09:23.136Z,81.59
2018-03-31T07:12:26.402Z,81.40
2018-03-31T07:15:30.460Z,81.28
2018-03-31T07:18:32.922Z,81.59
2018-03-31T07:21:36.254Z,81.52
2018-03-31T07:24:38.748Z,81.36
2018-03-31T07:27:42.207Z,80.93
2018-03-31T07:30:45.238Z,80.79
2018-03-31T07:33:47.756Z,80.66
2018-03-31T07:36:50.597Z,80.72
2018-03-31T07:39:53.101Z,80.73
2018-03-31T07:42:56.079Z,80.89
2018-03-31T07:45:58.662Z,81.52
2018-03-31T07:49:01.713Z,79.84
2018-03-31T07:52:04.507Z,79.44
2018-03-31T07:55:08.192Z,78.35
2018-03-31T07:58:21.096Z,78.53
2018-03-31T08:01:24.821Z,79.17
2018-03-31T08:04:27.358Z,78.31
2018-03-31T08:07:29.836Z,79.03
2018-03-31T08:10:32.320Z,78.73
2018-03-31T08:13:34.817Z,78.67
2018-03-31T08:16:37.314Z,77.57
2018-03-31T08:19:39.789Z,76.85
2018-03-31T08:22:42.368Z,77.63
2018-03-31T08:25:44.950Z,76.29
2018-03-31T08:28:47.430Z,77.93
2018-03-31T08:31:50.024Z,77.33
2018-03-31T08:34:54.017Z,78.20
2018-03-31T08:37:56.492Z,77.39
2018-03-31T08:40:58.985Z,76.99
2018-03-31T08:44:01.466Z,75.97
2018-03-31T08:47:04.046Z,76.04
2018-03-31T08:50:07.238Z,76.38
2018-03-31T08:53:09.722Z,76.12
2018-03-31T08:56:12.355Z,75.77
2018-03-31T08:59:15.032Z,74.43
2018-03-31T09:02:18.304Z,73.88
2018-03-31T09:05:20.802Z,74.17
2018-03-31T09:08:25.066Z,75.09
2018-03-31T09:11:27.556Z,73.64
2018-03-31T09:14:30.818Z,73.52
2018-03-31T09:20:41.240Z,74.36
2018-03-31T09:23:43.775Z,73.14
2018-03-31T09:26:47.014Z,72.68
2018-03-31T09:29:49.495Z,72.39
2018-03-31T09:32:51.984Z,72.30
2018-03-31T09:35:54.457Z,71.69
2018-03-31T09:38:56.988Z,71.37
2018-03-31T09:42:00.321Z,71.83
2018-03-31T09:45:02.838Z,72.96
2018-03-31T09:48:18.408Z,72.95
2018-03-31T09:51:23.548Z,74.08
2018-03-31T09:54:26.029Z,73.82
2018-03-31T09:57:28.496Z,74.78
2018-03-31T10:00:35.802Z,74.39
2018-03-31T10:03:38.327Z,73.65
2018-03-31T10:06:40.898Z,73.94
2018-03-31T10:09:44.299Z,73.48
2018-03-31T10:12:47.574Z,73.28
2018-03-31T10:15:50.037Z,73.57
2018-03-31T10:18:52.518Z,72.26
2018-03-31T10:21:55.022Z,71.74
2018-03-31T10:24:57.513Z,69.73
2018-03-31T10:28:00.298Z,70.96
2018-03-31T10:31:02.777Z,72.60
2018-03-31T10:34:06.026Z,73.35
2018-03-31T10:37:08.550Z,73.74
2018-03-31T10:40:11.816Z,72.34
2018-03-31T10:43:14.414Z,71.73
2018-03-31T10:46:17.025Z,74.62
2018-03-31T10:49:19.528Z,74.88
2018-03-31T10:52:22.014Z,73.58
2018-03-31T10:55:25.281Z,70.90
2018-03-31T10:58:27.757Z,72.75
2018-03-31T11:01:30.221Z,69.70
2018-03-31T11:04:32.701Z,70.36
2018-03-31T11:07:35.173Z,71.80
2018-03-31T11:10:38.432Z,71.53
2018-03-31T11:13:40.921Z,73.09
2018-03-31T11:16:43.453Z,71.47
2018-03-31T11:19:45.924Z,71.33
2018-03-31T11:22:48.410Z,72.33
2018-03-31T11:25:50.906Z,73.85
2018-03-31T11:28:53.373Z,71.92
2018-03-31T11:31:55.892Z,69.62
2018-03-31T11:34:58.385Z,71.65
2018-03-31T11:38:00.892Z,73.53
2018-03-31T11:41:03.372Z,75.94
2018-03-31T11:44:05.845Z,76.82
2018-03-31T11:47:08.329Z,78.22
2018-03-31T11:50:10.818Z,77.81
2018-03-31T11:53:13.328Z,77.87
2018-03-31T11:56:15.801Z,77.40
2018-03-31T11:59:18.307Z,78.64
2018-03-31T12:02:20.773Z,77.73
2018-03-31T12:05:23.484Z,76.26
2018-03-31T12:08:27.811Z,74.71
2018-03-31T12:11:30.269Z,74.04
2018-03-31T12:14:32.750Z,75.67
2018-03-31T12:17:35.218Z,74.07
2018-03-31T12:20:37.697Z,74.92
2018-03-31T12:23:41.052Z,74.74
2018-03-31T12:26:43.556Z,74.30
2018-03-31T12:30:00.090Z,72.20
2018-03-31T12:33:03.756Z,71.96
2018-03-31T12:36:06.249Z,71.54
2018-03-31T12:39:08.754Z,71.23
2018-03-31T12:42:11.229Z,71.28
2018-03-31T12:45:13.700Z,69.25
2018-03-31T12:48:16.180Z,71.34
2018-03-31T12:51:18.696Z,70.72
2018-03-31T12:54:21.954Z,69.01
2018-03-31T12:57:24.497Z,67.82
2018-03-31T13:00:26.921Z,69.87
2018-03-31T13:03:29.408Z,67.37
2018-03-31T13:06:31.870Z,66.42
2018-03-31T13:09:34.346Z,66.30
2018-03-31T13:12:36.813Z,68.41
2018-03-31T13:15:39.328Z,68.13
2018-03-31T13:18:41.802Z,69.54
2018-03-31T13:21:44.280Z,70.23
2018-03-31T13:24:46.792Z,71.01
2018-03-31T13:27:50.038Z,70.85
2018-03-31T13:30:52.525Z,69.49
2018-03-31T13:33:54.992Z,70.30
2018-03-31T13:36:57.478Z,70.23
2018-03-31T13:39:59.952Z,70.05
2018-03-31T13:43:02.430Z,69.06
2018-03-31T13:46:04.994Z,67.12
2018-03-31T13:49:07.486Z,68.18
2018-03-31T13:52:09.973Z,66.93
2018-03-31T13:55:13.225Z,65.54
2018-03-31T13:58:16.504Z,65.95
2018-03-31T14:01:18.974Z,66.15
2018-03-31T14:04:21.469Z,65.84
2018-03-31T14:07:24.818Z,65.77
2018-03-31T14:10:27.287Z,65.12
2018-03-31T14:13:29.785Z,64.97
2018-03-31T14:16:32.273Z,66.94
2018-03-31T14:19:34.898Z,66.35
2018-03-31T14:22:38.125Z,64.27
2018-03-31T14:25:40.605Z,64.96
2018-03-31T14:28:43.099Z,65.39
2018-03-31T14:31:45.853Z,63.82
2018-03-31T14:34:52.115Z,62.20
2018-03-31T14:37:55.340Z,64.48
2018-03-31T14:40:57.822Z,64.76
2018-03-31T14:44:00.288Z,64.06
2018-03-31T14:47:02.812Z,63.44
2018-03-31T14:50:05.996Z,63.96
2018-03-31T14:53:08.451Z,64.71
2018-03-31T14:56:11.285Z,63.90
2018-03-31T14:59:13.765Z,64.75
2018-03-31T15:02:17.019Z,66.17
2018-03-31T15:05:19.521Z,66.27
2018-03-31T15:08:21.989Z,66.96
2018-03-31T15:11:24.504Z,68.25
2018-03-31T15:14:27.745Z,68.21
2018-03-31T15:17:30.238Z,66.98
2018-03-31T15:20:32.730Z,67.50
2018-03-31T15:23:35.197Z,66.95
2018-03-31T15:26:37.749Z,66.10
2018-03-31T15:29:40.970Z,66.25
2018-03-31T15:32:43.560Z,66.32
2018-03-31T15:35:46.074Z,67.00
2018-03-31T15:38:49.384Z,66.87
2018-03-31T15:41:52.644Z,65.97
2018-03-31T15:44:55.183Z,65.47
2018-03-31T15:47:57.646Z,66.55
2018-03-31T15:51:00.141Z,66.66
2018-03-31T15:54:02.629Z,67.43
2018-03-31T15:57:05.107Z,66.78
2018-03-31T16:00:07.606Z,66.64
2018-03-31T16:03:10.079Z,67.18
2018-03-31T16:06:12.818Z,67.56
2018-03-31T16:09:16.065Z,67.54
2018-03-31T16:12:18.680Z,68.19
2018-03-31T16:15:21.938Z,69.65
2018-03-31T16:18:24.483Z,70.41
2018-03-31T16:21:27.726Z,67.22
2018-03-31T16:24:31.391Z,67.61
2018-03-31T16:27:33.893Z,69.27
2018-03-31T16:30:36.436Z,71.26
2018-03-31T16:33:39.698Z,68.70
2018-03-31T16:36:42.214Z,68.12
2018-03-31T16:39:45.443Z,68.29
2018-03-31T16:42:48.035Z,68.06
2018-03-31T16:45:50.673Z,66.67
2018-03-31T16:48:53.908Z,66.06
2018-03-31T16:51:56.435Z,66.64
2018-03-31T16:54:59.746Z,66.03
2018-03-31T16:58:02.992Z,66.12
2018-03-31T17:07:48.737Z,67.06
2018-03-31T17:10:51.205Z,65.57
2018-03-31T17:13:53.694Z,65.73
2018-03-31T17:16:56.212Z,65.62
2018-03-31T17:19:59.479Z,65.65
2018-03-31T17:23:01.953Z,66.57
2018-03-31T17:26:04.436Z,65.15
2018-03-31T17:29:06.909Z,63.93
2018-03-31T17:32:09.430Z,65.19
2018-03-31T17:35:12.697Z,64.09
2018-03-31T17:38:15.232Z,65.40
2018-03-31T17:41:17.718Z,65.84
2018-03-31T17:44:20.192Z,65.97
2018-03-31T17:47:22.667Z,66.22
2018-03-31T17:50:25.388Z,65.69
2018-03-31T17:53:27.910Z,64.95
2018-03-31T17:56:30.489Z,65.60
2018-03-31T17:59:32.968Z,65.48
2018-03-31T18:02:36.249Z,66.37
2018-03-31T18:05:39.563Z,67.27
2018-03-31T18:08:42.802Z,66.87
2018-03-31T18:11:45.269Z,67.17
2018-03-31T18:14:47.749Z,67.70
2018-03-31T18:17:50.230Z,67.51
2018-03-31T18:20:52.773Z,67.81
2018-03-31T18:23:56.022Z,68.38
2018-03-31T18:26:58.504Z,68.91
2018-03-31T18:30:00.984Z,69.15
2018-03-31T18:33:03.460Z,69.51
2018-03-31T18:36:06.978Z,69.69
2018-03-31T18:39:09.469Z,70.05
2018-03-31T18:42:11.945Z,70.12
2018-03-31T18:45:14.506Z,70.94
2018-03-31T18:48:17.737Z,71.17
2018-03-31T18:51:20.991Z,71.18
2018-03-31T18:54:23.501Z,71.88
2018-03-31T18:57:26.757Z,72.05
2018-03-31T19:00:29.244Z,72.38
2018-03-31T19:03:32.520Z,72.44
2018-03-31T19:06:35.018Z,72.91
2018-03-31T19:09:37.643Z,73.31
2018-03-31T19:12:40.979Z,73.75
2018-03-31T19:15:43.546Z,73.76
2018-03-31T19:18:46.031Z,74.02
2018-03-31T19:21:48.549Z,74.35
2018-03-31T19:24:56.641Z,75.29
2018-03-31T19:27:59.141Z,75.78
2018-03-31T19:31:02.506Z,76.77
2018-03-31T19:34:05.025Z,77.57
2018-03-31T19:37:07.584Z,78.12
2018-03-31T19:40:11.369Z,78.32
2018-03-31T19:43:15.097Z,78.56
2018-03-31T19:46:17.658Z,78.61
2018-03-31T19:49:20.892Z,79.15
2018-03-31T19:52:23.814Z,79.38
2018-03-31T19:55:26.284Z,79.05
2018-03-31T19:58:28.779Z,79.75
2018-03-31T20:01:32.082Z,79.49
2018-03-31T20:04:35.887Z,79.63
2018-03-31T20:07:38.377Z,79.55
2018-03-31T20:10:41.719Z,79.63
2018-03-31T20:13:44.209Z,79.67
2018-03-31T20:16:46.685Z,79.68
2018-03-31T20:19:49.184Z,79.15
2018-03-31T20:22:51.670Z,79.16
2018-03-31T20:25:54.173Z,78.99
2018-03-31T20:28:57.479Z,78.74
2018-03-31T20:31:59.972Z,78.70
2018-03-31T20:35:02.474Z,78.77
2018-03-31T20:38:05.022Z,78.69
2018-03-31T20:41:07.538Z,78.87
2018-03-31T20:44:10.016Z,78.90
2018-03-31T20:47:12.486Z,78.72
2018-03-31T20:50:15.013Z,78.71
2018-03-31T20:53:18.342Z,78.70
2018-03-31T20:56:20.855Z,79.09
2018-03-31T20:59:23.368Z,78.67
2018-03-31T21:02:26.632Z,78.78
2018-03-31T21:05:30.677Z,78.67
2018-03-31T21:08:33.161Z,78.46
2018-03-31T21:11:35.642Z,78.41
2018-03-31T21:14:38.214Z,78.55
2018-03-31T21:17:41.378Z,78.80
2018-03-31T21:20:46.062Z,78.76
2018-03-31T21:23:48.677Z,78.79
2018-03-31T21:26:52.289Z,78.80
2018-03-31T21:29:54.777Z,78.63
2018-03-31T21:32:57.542Z,78.65
2018-03-31T21:36:15.507Z,78.78
2018-03-31T21:46:19.264Z,79.11
2018-03-31T21:49:22.135Z,79.13
2018-03-31T21:52:25.779Z,79.35
2018-03-31T21:55:28.262Z,79.33
2018-03-31T21:58:30.809Z,79.34
2018-03-31T22:01:33.880Z,79.17
2018-03-31T22:04:37.394Z,79.07
2018-03-31T22:07:40.792Z,79.12
2018-03-31T22:10:44.069Z,78.82
2018-03-31T22:13:52.047Z,79.21
2018-03-31T22:17:02.034Z,79.04
2018-03-31T22:20:06.505Z,79.28
2018-03-31T22:23:08.995Z,79.16
2018-03-31T22:26:11.479Z,79.36
2018-03-31T22:29:13.958Z,79.19
2018-03-31T22:32:16.571Z,79.29
2018-03-31T22:35:19.848Z,78.87
2018-03-31T22:38:22.522Z,78.96
2018-03-31T22:41:25.005Z,79.31
2018-03-31T22:44:27.620Z,79.43
2018-03-31T22:47:30.214Z,79.40
2018-03-31T22:50:32.996Z,79.28
2018-03-31T22:53:37.469Z,79.12
2018-03-31T22:56:39.966Z,79.64
2018-03-31T22:59:42.488Z,79.40
2018-03-31T23:02:45.445Z,79.18
2018-03-31T23:05:47.966Z,79.13
2018-03-31T23:08:51.272Z,79.26
2018-03-31T23:11:54.949Z,79.31
2018-03-31T23:14:57.429Z,79.15
2018-03-31T23:18:00.129Z,79.03
2018-03-31T23:21:03.377Z,78.79
2018-03-31T23:24:05.857Z,78.55
2018-03-31T23:27:08.468Z,78.57
2018-03-31T23:30:11.021Z,78.51
2018-03-31T23:33:14.232Z,78.40
2018-03-31T23:36:17.028Z,78.42
2018-03-31T23:39:19.713Z,78.41
2018-03-31T23:42:22.266Z,78.49
2018-03-31T23:45:26.418Z,78.59
2018-03-31T23:48:29.026Z,78.69
2018-03-31T23:51:32.298Z,78.62
2018-03-31T23:54:34.772Z,78.70
2018-03-31T23:57:37.312Z,78.86
